Airfield :
LOGIN :

Register | Disclaimer

   EN    FR    IT 

 










Legend :    VFR   Marginal VFR   IFR   Intensive IFR   Very Intensive IFR
Visi :
Ceiling :
>= 8 km
>= 3000ft
5 to 8 km
1000 to 3000 ft
1500m to 5 km
500 to 1000 ft
800 to 1500m
200 to 500 ft
< 800m
< 200 ft
Symbols :   Thunderstorms  Fog  Heavy snow  Heavy precipitations  Wind > 20 kt
SIGMETs :     Misc.  Thunderstorms  Icing  Turbulence  Mountain Waves  Volcanic Ashes






- Airport Elevation : 125 ft
- IATA code : MGL


EDLN - Mönchengladbach

CURRENT METAR :
  • 281450Z 03008KT 350V080 CAVOK 21/02 Q1030

EXPIRED METARs :
  • 281420Z 01008KT 320V070 CAVOK 21/02 Q1031
  • 281350Z 02006KT 330V060 CAVOK 21/03 Q1031
  • 281320Z 05009KT 350V110 CAVOK 20/02 Q1031
  • 281250Z 06008KT 020V100 CAVOK 20/02 Q1032
  • 281220Z 02008KT 320V110 CAVOK 20/02 Q1032

TAF TAF EDLN
Valid from the 28 at 15:00 until the 29 at 00:00 UTC


281400Z 2815/2824 02010KT CAVOK
BECMG 2819/2821 02005KT



MET'MAP, your aeronautical weather chart ! - Copyright ORBIFLY December 2007 - Disclaimer

ORBIFLY MET'MAP TEAM :

Programming & Development : Alexandra Zaïnal
Concept & original design : Baudouin d'Aumeries
Assistance for programming : Marc-Olivier Méhu
Technical & hardware support : Manuel Goepfert

Contact : metmap@orbifly.com




SOURCES & CREDITS :

   NOAA